^^
Saratoga-Weather Station Historical Data
Daily Summary for October 29, 2020 Units:  Both    English   Metric
Daily Weekly Monthly Yearly Custom
  High: Low: Average:
Temperature: 55.2 °F /  12.9 °C 48.4 °F /  9.1 °C 52 °F /  11.1 °C
Dew Point: 53.1 °F /  11.7 °C 46.2 °F /  7.9 °C 49.3 °F /  9.6 °C
Humidity: 94% 82% 90%
Wind Speed: 14.1mph /  22.7km/h - 3.1mph /  5km/h
Wind Gust: 17mph /  27.4km/h - -
Wind- - West
Pressure: 30.1 in /  1020.7 hPa 29.9 in /  1011.5 hPa -
Precipitation: 0.49 in /  12.4 mm    
Historical Graphs
 
 
Tabular Data for October 29, 2020
Time Temperature Dew Point Pressure Wind Wind Speed Wind Gust Humidity Rainfall Rate (Hourly) solar
00:01 53.2 °F /  11.8 °C 49.5 °F /  9.7 °C 29.9in /  1011.9hPa WSW 4.9mph /  7.9km/h 9mph /  14.5km/h 87% 0.01in /  0.2mm 0 W/m2
00:06 53.2 °F /  11.8 °C 49.8 °F /  9.9 °C 29.9in /  1011.9hPa NNW 4mph /  6.4km/h 4mph /  6.4km/h 88% 0.01in /  0.2mm 0 W/m2
00:11 53.1 °F /  11.7 °C 49.6 °F /  9.8 °C 29.9in /  1011.9hPa WNW 6.9mph /  11.1km/h 9mph /  14.5km/h 88% 0.01in /  0.2mm 0 W/m2
00:16 53.1 °F /  11.7 °C 49.6 °F /  9.8 °C 29.9in /  1011.9hPa Calm   6mph /  9.7km/h 88% 0.01in /  0.2mm 0 W/m2
00:21 53.1 °F /  11.7 °C 49.6 °F /  9.8 °C 29.9in /  1011.9hPa WSW 2.9mph /  4.7km/h 11mph /  17.7km/h 88% 0.01in /  0.2mm 0 W/m2
00:26 53.1 °F /  11.7 °C 49.6 °F /  9.8 °C 29.9in /  1011.9hPa WNW 4mph /  6.4km/h 5mph /  8km/h 88% 0.01in /  0.2mm 0 W/m2
00:31 53.1 °F /  11.7 °C 49.6 °F /  9.8 °C 29.9in /  1011.9hPa SW 6.9mph /  11.1km/h 12mph /  19.3km/h 88% 0.01in /  0.2mm 0 W/m2
00:36 53.1 °F /  11.7 °C 49.3 °F /  9.6 °C 29.9in /  1011.9hPa WNW 4mph /  6.4km/h 12mph /  19.3km/h 87% 0.01in /  0.2mm 0 W/m2
00:41 53.2 °F /  11.8 °C 49.1 °F /  9.5 °C 29.9in /  1011.5hPa NW 4.9mph /  7.9km/h 9mph /  14.5km/h 86% 0.01in /  0.2mm 0 W/m2
00:46 53.2 °F /  11.8 °C 48.9 °F /  9.4 °C 29.9in /  1011.9hPa NW 8.9mph /  14.3km/h 12mph /  19.3km/h 85% 0.01in /  0.2mm 0 W/m2
00:51 53.4 °F /  11.9 °C 49.1 °F /  9.5 °C 29.9in /  1011.9hPa NNW 2.9mph /  4.7km/h 8mph /  12.9km/h 85% 0.01in /  0.2mm 0 W/m2
00:56 53.4 °F /  11.9 °C 49.1 °F /  9.5 °C 29.9in /  1011.9hPa West 2.9mph /  4.7km/h 8mph /  12.9km/h 85% 0.01in /  0.2mm 0 W/m2
01:01 53.4 °F /  11.9 °C 49.1 °F /  9.5 °C 29.9in /  1012.2hPa NNW 4mph /  6.4km/h 9mph /  14.5km/h 85% 0in /  0.0mm 0 W/m2
01:06 53.4 °F /  11.9 °C 49.1 °F /  9.5 °C 29.9in /  1012.2hPa South 2mph /  3.2km/h 8mph /  12.9km/h 85% 0in /  0.0mm 0 W/m2
01:11 53.4 °F /  11.9 °C 49.1 °F /  9.5 °C 29.9in /  1012.2hPa NE 2.9mph /  4.7km/h 9mph /  14.5km/h 85% 0in /  0.0mm 0 W/m2
01:16 53.4 °F /  11.9 °C 49.1 °F /  9.5 °C 29.9in /  1012.2hPa WNW 6.9mph /  11.1km/h 15mph /  24.1km/h 85% 0in /  0.0mm 0 W/m2
01:21 53.4 °F /  11.9 °C 49.1 °F /  9.5 °C 29.9in /  1012.2hPa NW 4.9mph /  7.9km/h 5mph /  8km/h 85% 0in /  0.0mm 0 W/m2
01:26 53.4 °F /  11.9 °C 48.7 °F /  9.3 °C 29.9in /  1012.2hPa WSW 4mph /  6.4km/h 11mph /  17.7km/h 84% 0in /  0.0mm 0 W/m2
01:31 53.4 °F /  11.9 °C 48.7 °F /  9.3 °C 29.9in /  1012.2hPa SW 6.9mph /  11.1km/h 15mph /  24.1km/h 84% 0in /  0.0mm 0 W/m2
01:36 53.8 °F /  12.1 °C 48.7 °F /  9.3 °C 29.9in /  1012.2hPa NW 8.1mph /  13km/h 9mph /  14.5km/h 83% 0in /  0.0mm 0 W/m2
01:41 53.8 °F /  12.1 °C 48.7 °F /  9.3 °C 29.9in /  1012.2hPa WNW 6.9mph /  11.1km/h 14mph /  22.5km/h 83% 0in /  0.0mm 0 W/m2
01:47 53.8 °F /  12.1 °C 48.4 °F /  9.1 °C 29.9in /  1012.2hPa NNW 4mph /  6.4km/h 4mph /  6.4km/h 82% 0in /  0.0mm 0 W/m2
01:52 54 °F /  12.2 °C 48.6 °F /  9.2 °C 29.9in /  1012.2hPa WNW 4mph /  6.4km/h 9mph /  14.5km/h 82% 0in /  0.0mm 0 W/m2
01:57 53.8 °F /  12.1 °C 48.4 °F /  9.1 °C 29.9in /  1012.2hPa North 4.9mph /  7.9km/h 11mph /  17.7km/h 82% 0in /  0.0mm 0 W/m2
02:02 54 °F /  12.2 °C 48.6 °F /  9.2 °C 29.9in /  1012.2hPa West 8.9mph /  14.3km/h 15mph /  24.1km/h 82% 0in /  0.0mm 0 W/m2
02:07 54 °F /  12.2 °C 48.6 °F /  9.2 °C 29.9in /  1012.2hPa WSW 4.9mph /  7.9km/h 11mph /  17.7km/h 82% 0in /  0.0mm 0 W/m2
02:12 53.8 °F /  12.1 °C 48.4 °F /  9.1 °C 29.9in /  1012.2hPa WNW 6mph /  9.7km/h 15mph /  24.1km/h 82% 0in /  0.0mm 0 W/m2
02:17 53.6 °F /  12 °C 48.6 °F /  9.2 °C 29.9in /  1012.5hPa West 6mph /  9.7km/h 14mph /  22.5km/h 83% 0in /  0.0mm 0 W/m2
02:22 53.4 °F /  11.9 °C 48.7 °F /  9.3 °C 29.9in /  1012.9hPa WNW 2mph /  3.2km/h 15mph /  24.1km/h 84% 0in /  0.0mm 0 W/m2
02:27 53.2 °F /  11.8 °C 48.6 °F /  9.2 °C 29.9in /  1012.9hPa WNW 2.9mph /  4.7km/h 10mph /  16.1km/h 84% 0.01in /  0.2mm 0 W/m2
02:32 52.9 °F /  11.6 °C 48.7 °F /  9.3 °C 29.9in /  1012.5hPa West 2.9mph /  4.7km/h 10mph /  16.1km/h 86% 0.02in /  0.5mm 0 W/m2
02:37 52.5 °F /  11.4 °C 48.7 °F /  9.3 °C 29.9in /  1012.9hPa North 2mph /  3.2km/h 10mph /  16.1km/h 87% 0.02in /  0.5mm 0 W/m2
02:42 52.3 °F /  11.3 °C 48.9 °F /  9.4 °C 29.9in /  1012.9hPa West 6mph /  9.7km/h 6mph /  9.7km/h 88% 0.03in /  0.8mm 0 W/m2
02:47 52.2 °F /  11.2 °C 49.1 °F /  9.5 °C 29.9in /  1013.2hPa WSW 6.9mph /  11.1km/h 13mph /  20.9km/h 89% 0.03in /  0.8mm 0 W/m2
02:52 51.1 °F /  10.6 °C 47.3 °F /  8.5 °C 29.9in /  1013.2hPa West 10.1mph /  16.3km/h 16mph /  25.7km/h 87% 0.13in /  3.3mm 0 W/m2
02:57 50.4 °F /  10.2 °C 46.9 °F /  8.3 °C 29.9in /  1012.9hPa WNW 8.1mph /  13km/h 13mph /  20.9km/h 88% 0.14in /  3.6mm 0 W/m2
03:02 50 °F /  10 °C 47.1 °F /  8.4 °C 29.9in /  1012.9hPa West 6mph /  9.7km/h 11mph /  17.7km/h 90% 0.16in /  4.1mm 0 W/m2
03:07 49.8 °F /  9.9 °C 46.9 °F /  8.3 °C 29.9in /  1013.2hPa West 4mph /  6.4km/h 10mph /  16.1km/h 90% 0.2in /  5.1mm 0 W/m2
03:12 49.6 °F /  9.8 °C 47.1 °F /  8.4 °C 29.9in /  1013.2hPa West 6.9mph /  11.1km/h 14mph /  22.5km/h 91% 0.24in /  6.1mm 0 W/m2
03:17 49.5 °F /  9.7 °C 46.9 °F /  8.3 °C 29.9in /  1013.2hPa WNW 8.1mph /  13km/h 10mph /  16.1km/h 91% 0.25in /  6.3mm 0 W/m2
03:22 49.3 °F /  9.6 °C 47.1 °F /  8.4 °C 29.9in /  1013.2hPa NNW 14.1mph /  22.7km/h 14mph /  22.5km/h 92% 0.27in /  6.9mm 0 W/m2
03:27 49.3 °F /  9.6 °C 47.1 °F /  8.4 °C 29.9in /  1013.2hPa West 8.1mph /  13km/h 17mph /  27.4km/h 92% 0.28in /  7.1mm 0 W/m2
03:32 49.3 °F /  9.6 °C 46.8 °F /  8.2 °C 29.9in /  1013.2hPa West 6mph /  9.7km/h 11mph /  17.7km/h 91% 0.3in /  7.6mm 0 W/m2
03:37 48.9 °F /  9.4 °C 46.4 °F /  8 °C 29.9in /  1013.5hPa NW 8.9mph /  14.3km/h 17mph /  27.4km/h 91% 0.3in /  7.6mm 0 W/m2
03:42 48.7 °F /  9.3 °C 46.6 °F /  8.1 °C 29.9in /  1013.2hPa WNW 10.1mph /  16.3km/h 15mph /  24.1km/h 92% 0.31in /  7.9mm 0 W/m2
03:47 48.6 °F /  9.2 °C 46.4 °F /  8 °C 29.9in /  1013.5hPa West 4mph /  6.4km/h 11mph /  17.7km/h 92% 0.31in /  7.9mm 0 W/m2
03:52 48.6 °F /  9.2 °C 46.4 °F /  8 °C 29.9in /  1013.2hPa NNW 4mph /  6.4km/h 15mph /  24.1km/h 92% 0.23in /  5.8mm 0 W/m2
03:57 48.4 °F /  9.1 °C 46.2 °F /  7.9 °C 29.9in /  1013.2hPa WSW 8.1mph /  13km/h 17mph /  27.4km/h 92% 0.22in /  5.6mm 0 W/m2
04:02 48.6 °F /  9.2 °C 46.4 °F /  8 °C 29.9in /  1013.2hPa WNW 2mph /  3.2km/h 10mph /  16.1km/h 92% 0.2in /  5.1mm 0 W/m2
04:07 48.6 °F /  9.2 °C 46.4 °F /  8 °C 29.9in /  1013.2hPa WNW 4mph /  6.4km/h 15mph /  24.1km/h 92% 0.17in /  4.3mm 0 W/m2
04:12 48.6 °F /  9.2 °C 46.4 °F /  8 °C 29.9in /  1013.2hPa SSW 4mph /  6.4km/h 11mph /  17.7km/h 92% 0.15in /  3.8mm 0 W/m2
04:17 48.4 °F /  9.1 °C 46.2 °F /  7.9 °C 29.9in /  1013.2hPa West 2mph /  3.2km/h 14mph /  22.5km/h 92% 0.13in /  3.3mm 0 W/m2
04:22 48.4 °F /  9.1 °C 46.2 °F /  7.9 °C 29.9in /  1013.2hPa West 2mph /  3.2km/h 4mph /  6.4km/h 92% 0.13in /  3.3mm 0 W/m2
04:27 48.4 °F /  9.1 °C 46.2 °F /  7.9 °C 29.9in /  1013.2hPa WNW 2.9mph /  4.7km/h 7mph /  11.3km/h 92% 0.1in /  2.5mm 0 W/m2
04:32 48.4 °F /  9.1 °C 46.2 °F /  7.9 °C 29.9in /  1013.2hPa West 11mph /  17.7km/h 11mph /  17.7km/h 92% 0.09in /  2.3mm 0 W/m2
04:37 48.4 °F /  9.1 °C 46.2 °F /  7.9 °C 29.9in /  1013.2hPa SSW 2.9mph /  4.7km/h 9mph /  14.5km/h 92% 0.08in /  2.0mm 0 W/m2
04:42 48.4 °F /  9.1 °C 46.2 °F /  7.9 °C 29.9in /  1013.2hPa NW 2mph /  3.2km/h 10mph /  16.1km/h 92% 0.06in /  1.5mm 0 W/m2
04:47 48.4 °F /  9.1 °C 46.2 °F /  7.9 °C 29.9in /  1013.5hPa West 4mph /  6.4km/h 11mph /  17.7km/h 92% 0.06in /  1.5mm 0 W/m2
04:52 48.4 °F /  9.1 °C 46.2 °F /  7.9 °C 29.9in /  1013.5hPa SW 6.9mph /  11.1km/h 9mph /  14.5km/h 92% 0.05in /  1.3mm 0 W/m2
04:57 48.4 °F /  9.1 °C 46.2 °F /  7.9 °C 29.9in /  1013.5hPa West 2mph /  3.2km/h 9mph /  14.5km/h 92% 0.04in /  1.0mm 0 W/m2
05:02 48.4 °F /  9.1 °C 46.2 °F /  7.9 °C 29.9in /  1013.9hPa WSW 4mph /  6.4km/h 11mph /  17.7km/h 92% 0.04in /  1.0mm 0 W/m2
05:07 48.6 °F /  9.2 °C 46.4 °F /  8 °C 29.9in /  1013.9hPa NW 2mph /  3.2km/h 8mph /  12.9km/h 92% 0.03in /  0.8mm 0 W/m2
05:12 48.4 °F /  9.1 °C 46.2 °F /  7.9 °C 29.9in /  1013.9hPa NW 4mph /  6.4km/h 4mph /  6.4km/h 92% 0.02in /  0.5mm 0 W/m2
05:17 48.4 °F /  9.1 °C 46.2 °F /  7.9 °C 30in /  1014.2hPa NNE 2.9mph /  4.7km/h 8mph /  12.9km/h 92% 0.02in /  0.5mm 0 W/m2
05:22 48.4 °F /  9.1 °C 46.2 °F /  7.9 °C 30in /  1014.2hPa NNW 2mph /  3.2km/h 4mph /  6.4km/h 92% 0.01in /  0.2mm 0 W/m2
05:27 48.6 °F /  9.2 °C 46.4 °F /  8 °C 30in /  1014.2hPa WNW 2mph /  3.2km/h 7mph /  11.3km/h 92% 0.01in /  0.2mm 0 W/m2
05:33 48.6 °F /  9.2 °C 46.4 °F /  8 °C 30in /  1014.6hPa WNW 4.9mph /  7.9km/h 12mph /  19.3km/h 92% 0in /  0.0mm 0 W/m2
05:38 48.6 °F /  9.2 °C 46.4 °F /  8 °C 30in /  1014.6hPa West 11mph /  17.7km/h 11mph /  17.7km/h 92% 0in /  0.0mm 0 W/m2
05:43 48.7 °F /  9.3 °C 46.6 °F /  8.1 °C 30in /  1014.6hPa WNW 2mph /  3.2km/h 12mph /  19.3km/h 92% 0in /  0.0mm 0 W/m2
05:48 48.7 °F /  9.3 °C 46.6 °F /  8.1 °C 30in /  1014.9hPa WNW 2.9mph /  4.7km/h 7mph /  11.3km/h 92% 0in /  0.0mm 0 W/m2
05:53 48.7 °F /  9.3 °C 46.2 °F /  7.9 °C 30in /  1014.9hPa WNW 2mph /  3.2km/h 8mph /  12.9km/h 91% 0in /  0.0mm 0 W/m2
05:58 48.7 °F /  9.3 °C 46.2 °F /  7.9 °C 30in /  1014.9hPa WNW 4mph /  6.4km/h 9mph /  14.5km/h 91% 0in /  0.0mm 0 W/m2
06:03 48.7 °F /  9.3 °C 46.2 °F /  7.9 °C 30in /  1014.9hPa WSW 2.9mph /  4.7km/h 4mph /  6.4km/h 91% 0in /  0.0mm 0 W/m2
06:08 48.7 °F /  9.3 °C 46.2 °F /  7.9 °C 30in /  1015.2hPa West 2.9mph /  4.7km/h 4mph /  6.4km/h 91% 0in /  0.0mm 0 W/m2
06:13 48.7 °F /  9.3 °C 46.2 °F /  7.9 °C 30in /  1015.2hPa WSW 6.9mph /  11.1km/h 8mph /  12.9km/h 91% 0in /  0.0mm 0 W/m2
06:18 48.7 °F /  9.3 °C 46.6 °F /  8.1 °C 30in /  1015.2hPa SW 4mph /  6.4km/h 8mph /  12.9km/h 92% 0in /  0.0mm 0 W/m2
06:23 48.7 °F /  9.3 °C 46.6 °F /  8.1 °C 30in /  1015.2hPa West 2.9mph /  4.7km/h 8mph /  12.9km/h 92% 0in /  0.0mm 0 W/m2
06:28 48.9 °F /  9.4 °C 46.8 °F /  8.2 °C 30in /  1015.6hPa WSW 2.9mph /  4.7km/h 8mph /  12.9km/h 92% 0in /  0.0mm 0 W/m2
06:33 48.9 °F /  9.4 °C 46.8 °F /  8.2 °C 30in /  1015.6hPa WNW 4mph /  6.4km/h 7mph /  11.3km/h 92% 0in /  0.0mm 0 W/m2
06:38 49.1 °F /  9.5 °C 46.9 °F /  8.3 °C 30in /  1015.6hPa West 2mph /  3.2km/h 8mph /  12.9km/h 92% 0in /  0.0mm 0 W/m2
06:43 49.1 °F /  9.5 °C 46.9 °F /  8.3 °C 30in /  1015.6hPa West 2.9mph /  4.7km/h 9mph /  14.5km/h 92% 0in /  0.0mm 0 W/m2
06:48 49.1 °F /  9.5 °C 46.9 °F /  8.3 °C 30in /  1015.6hPa West 2.9mph /  4.7km/h 7mph /  11.3km/h 92% 0in /  0.0mm 0 W/m2
06:53 48.9 °F /  9.4 °C 46.8 °F /  8.2 °C 30in /  1015.6hPa WNW 2.9mph /  4.7km/h 10mph /  16.1km/h 92% 0in /  0.0mm 0 W/m2
06:58 48.9 °F /  9.4 °C 46.8 °F /  8.2 °C 30in /  1015.9hPa WNW 2mph /  3.2km/h 4mph /  6.4km/h 92% 0in /  0.0mm 0 W/m2
07:03 48.9 °F /  9.4 °C 46.8 °F /  8.2 °C 30in /  1015.9hPa WNW 8.1mph /  13km/h 11mph /  17.7km/h 92% 0in /  0.0mm 0 W/m2
07:08 49.1 °F /  9.5 °C 46.9 °F /  8.3 °C 30in /  1016.3hPa WSW 2.9mph /  4.7km/h 5mph /  8km/h 92% 0in /  0.0mm 0 W/m2
07:13 49.1 °F /  9.5 °C 46.9 °F /  8.3 °C 30in /  1016.3hPa WNW 2.9mph /  4.7km/h 11mph /  17.7km/h 92% 0in /  0.0mm 0 W/m2
07:18 49.3 °F /  9.6 °C 47.1 °F /  8.4 °C 30in /  1016.3hPa NW 2mph /  3.2km/h 7mph /  11.3km/h 92% 0in /  0.0mm 0 W/m2
07:23 49.3 °F /  9.6 °C 46.8 °F /  8.2 °C 30in /  1016.6hPa West 2.9mph /  4.7km/h 6mph /  9.7km/h 91% 0in /  0.0mm 5 W/m2
07:28 49.3 °F /  9.6 °C 46.8 °F /  8.2 °C 30in /  1016.6hPa West 6.9mph /  11.1km/h 7mph /  11.3km/h 91% 0in /  0.0mm 9 W/m2
07:33 49.5 °F /  9.7 °C 46.9 °F /  8.3 °C 30in /  1016.9hPa WNW 2.9mph /  4.7km/h 10mph /  16.1km/h 91% 0in /  0.0mm 11 W/m2
07:38 49.5 °F /  9.7 °C 46.9 °F /  8.3 °C 30in /  1016.9hPa WNW 2.9mph /  4.7km/h 9mph /  14.5km/h 91% 0in /  0.0mm 14 W/m2
07:43 49.5 °F /  9.7 °C 46.9 °F /  8.3 °C 30in /  1016.9hPa WSW 4.9mph /  7.9km/h 11mph /  17.7km/h 91% 0in /  0.0mm 21 W/m2
07:48 49.5 °F /  9.7 °C 46.9 °F /  8.3 °C 30in /  1016.9hPa West 2.9mph /  4.7km/h 8mph /  12.9km/h 91% 0in /  0.0mm 23 W/m2
07:53 49.5 °F /  9.7 °C 46.9 °F /  8.3 °C 30in /  1016.9hPa WNW 2.9mph /  4.7km/h 11mph /  17.7km/h 91% 0in /  0.0mm 25 W/m2
07:58 49.5 °F /  9.7 °C 46.9 °F /  8.3 °C 30in /  1016.9hPa WSW 4mph /  6.4km/h 8mph /  12.9km/h 91% 0in /  0.0mm 16 W/m2
08:03 49.6 °F /  9.8 °C 47.1 °F /  8.4 °C 30in /  1016.9hPa NW 2.9mph /  4.7km/h 5mph /  8km/h 91% 0in /  0.0mm 14 W/m2
08:08 49.6 °F /  9.8 °C 47.1 °F /  8.4 °C 30in /  1017.3hPa WNW 2mph /  3.2km/h 2mph /  3.2km/h 91% 0in /  0.0mm 21 W/m2
08:13 49.6 °F /  9.8 °C 47.1 °F /  8.4 °C 30in /  1017.3hPa WNW 2.9mph /  4.7km/h 9mph /  14.5km/h 91% 0in /  0.0mm 28 W/m2
08:18 49.6 °F /  9.8 °C 47.1 °F /  8.4 °C 30in /  1017.3hPa WNW 6.9mph /  11.1km/h 10mph /  16.1km/h 91% 0in /  0.0mm 28 W/m2
08:23 49.6 °F /  9.8 °C 47.1 °F /  8.4 °C 30.1in /  1017.6hPa NNW 0.9mph /  1.4km/h 11mph /  17.7km/h 91% 0in /  0.0mm 30 W/m2
08:28 49.8 °F /  9.9 °C 47.3 °F /  8.5 °C 30.1in /  1017.6hPa NNW 4mph /  6.4km/h 6mph /  9.7km/h 91% 0in /  0.0mm 33 W/m2
08:33 49.8 °F /  9.9 °C 47.3 °F /  8.5 °C 30.1in /  1018.0hPa WSW 6.9mph /  11.1km/h 14mph /  22.5km/h 91% 0in /  0.0mm 44 W/m2
08:38 49.8 °F /  9.9 °C 47.3 °F /  8.5 °C 30.1in /  1017.6hPa WNW 6.9mph /  11.1km/h 8mph /  12.9km/h 91% 0in /  0.0mm 47 W/m2
08:43 49.8 °F /  9.9 °C 47.3 °F /  8.5 °C 30.1in /  1018.0hPa NNW 2.9mph /  4.7km/h 13mph /  20.9km/h 91% 0in /  0.0mm 53 W/m2
08:48 49.8 °F /  9.9 °C 47.3 °F /  8.5 °C 30.1in /  1018.0hPa WNW 6.9mph /  11.1km/h 7mph /  11.3km/h 91% 0in /  0.0mm 53 W/m2
08:53 50 °F /  10 °C 47.5 °F /  8.6 °C 30.1in /  1018.0hPa West 2.9mph /  4.7km/h 7mph /  11.3km/h 91% 0in /  0.0mm 58 W/m2
08:58 50.2 °F /  10.1 °C 47.7 °F /  8.7 °C 30.1in /  1018.0hPa WNW 2mph /  3.2km/h 7mph /  11.3km/h 91% 0in /  0.0mm 49 W/m2
09:03 50.2 °F /  10.1 °C 47.7 °F /  8.7 °C 30.1in /  1018.3hPa Calm   4mph /  6.4km/h 91% 0in /  0.0mm 51 W/m2
09:08 50.2 °F /  10.1 °C 47.7 °F /  8.7 °C 30.1in /  1018.3hPa West 2mph /  3.2km/h 4mph /  6.4km/h 91% 0in /  0.0mm 49 W/m2
09:13 50.4 °F /  10.2 °C 47.8 °F /  8.8 °C 30.1in /  1018.3hPa WSW 2.9mph /  4.7km/h 10mph /  16.1km/h 91% 0in /  0.0mm 56 W/m2
09:18 50.4 °F /  10.2 °C 47.8 °F /  8.8 °C 30.1in /  1018.3hPa WNW 2mph /  3.2km/h 6mph /  9.7km/h 91% 0in /  0.0mm 56 W/m2
09:23 50.5 °F /  10.3 °C 48 °F /  8.9 °C 30.1in /  1018.3hPa Calm   10mph /  16.1km/h 91% 0in /  0.0mm 65 W/m2
09:28 50.5 °F /  10.3 °C 48 °F /  8.9 °C 30.1in /  1018.3hPa West 6.9mph /  11.1km/h 9mph /  14.5km/h 91% 0in /  0.0mm 79 W/m2
09:33 50.7 °F /  10.4 °C 47.8 °F /  8.8 °C 30.1in /  1018.3hPa North 2mph /  3.2km/h 10mph /  16.1km/h 90% 0in /  0.0mm 69 W/m2
09:38 50.7 °F /  10.4 °C 47.8 °F /  8.8 °C 30.1in /  1018.6hPa West 2mph /  3.2km/h 7mph /  11.3km/h 90% 0in /  0.0mm 67 W/m2
09:43 50.9 °F /  10.5 °C 48 °F /  8.9 °C 30.1in /  1018.6hPa West 2mph /  3.2km/h 5mph /  8km/h 90% 0in /  0.0mm 53 W/m2
09:48 50.9 °F /  10.5 °C 48 °F /  8.9 °C 30.1in /  1018.6hPa West 2mph /  3.2km/h 3mph /  4.8km/h 90% 0in /  0.0mm 70 W/m2
09:53 51.1 °F /  10.6 °C 48.2 °F /  9 °C 30.1in /  1018.6hPa WNW 4mph /  6.4km/h 4mph /  6.4km/h 90% 0in /  0.0mm 69 W/m2
09:58 51.1 °F /  10.6 °C 48.2 °F /  9 °C 30.1in /  1019.0hPa WNW 2mph /  3.2km/h 9mph /  14.5km/h 90% 0in /  0.0mm 69 W/m2
10:03 51.3 °F /  10.7 °C 48.4 °F /  9.1 °C 30.1in /  1019.0hPa WSW 2mph /  3.2km/h 7mph /  11.3km/h 90% 0in /  0.0mm 70 W/m2
10:08 51.3 °F /  10.7 °C 48.4 °F /  9.1 °C 30.1in /  1019.0hPa West 2.9mph /  4.7km/h 9mph /  14.5km/h 90% 0in /  0.0mm 65 W/m2
10:13 51.4 °F /  10.8 °C 48.6 °F /  9.2 °C 30.1in /  1019.0hPa West 6mph /  9.7km/h 7mph /  11.3km/h 90% 0in /  0.0mm 72 W/m2
10:18 51.4 °F /  10.8 °C 48.6 °F /  9.2 °C 30.1in /  1019.0hPa WNW 2mph /  3.2km/h 7mph /  11.3km/h 90% 0in /  0.0mm 81 W/m2
10:23 51.6 °F /  10.9 °C 48.7 °F /  9.3 °C 30.1in /  1019.0hPa East 2mph /  3.2km/h 4mph /  6.4km/h 90% 0in /  0.0mm 128 W/m2
10:28 51.8 °F /  11 °C 48.7 °F /  9.3 °C 30.1in /  1019.0hPa NW 4mph /  6.4km/h 10mph /  16.1km/h 89% 0in /  0.0mm 135 W/m2
10:33 52 °F /  11.1 °C 48.9 °F /  9.4 °C 30.1in /  1019.0hPa WNW 2mph /  3.2km/h 8mph /  12.9km/h 89% 0in /  0.0mm 100 W/m2
10:38 52.2 °F /  11.2 °C 48.7 °F /  9.3 °C 30.1in /  1019.3hPa WSW 2mph /  3.2km/h 7mph /  11.3km/h 88% 0in /  0.0mm 97 W/m2
10:43 52.2 °F /  11.2 °C 48.7 °F /  9.3 °C 30.1in /  1019.3hPa NNW 2.9mph /  4.7km/h 6mph /  9.7km/h 88% 0in /  0.0mm 134 W/m2
10:48 52.3 °F /  11.3 °C 48.9 °F /  9.4 °C 30.1in /  1019.3hPa WSW 4.9mph /  7.9km/h 6mph /  9.7km/h 88% 0in /  0.0mm 139 W/m2
10:53 52.3 °F /  11.3 °C 48.9 °F /  9.4 °C 30.1in /  1019.3hPa West 2.9mph /  4.7km/h 6mph /  9.7km/h 88% 0in /  0.0mm 137 W/m2
10:58 52.5 °F /  11.4 °C 49.1 °F /  9.5 °C 30.1in /  1019.3hPa WNW 4.9mph /  7.9km/h 7mph /  11.3km/h 88% 0in /  0.0mm 137 W/m2
11:03 52.7 °F /  11.5 °C 48.9 °F /  9.4 °C 30.1in /  1019.6hPa SW 4.9mph /  7.9km/h 8mph /  12.9km/h 87% 0in /  0.0mm 141 W/m2
11:08 52.9 °F /  11.6 °C 49.1 °F /  9.5 °C 30.1in /  1019.6hPa SW 2mph /  3.2km/h 10mph /  16.1km/h 87% 0in /  0.0mm 113 W/m2
11:13 52.9 °F /  11.6 °C 48.7 °F /  9.3 °C 30.1in /  1019.6hPa WSW 4mph /  6.4km/h 8mph /  12.9km/h 86% 0in /  0.0mm 137 W/m2
11:18 53.1 °F /  11.7 °C 48.9 °F /  9.4 °C 30.1in /  1019.6hPa NNW 2.9mph /  4.7km/h 11mph /  17.7km/h 86% 0in /  0.0mm 146 W/m2
11:23 53.1 °F /  11.7 °C 48.9 °F /  9.4 °C 30.1in /  1019.6hPa West 2mph /  3.2km/h 6mph /  9.7km/h 86% 0in /  0.0mm 105 W/m2
11:28 53.1 °F /  11.7 °C 48.7 °F /  9.3 °C 30.1in /  1019.6hPa WNW 2.9mph /  4.7km/h 10mph /  16.1km/h 85% 0in /  0.0mm 158 W/m2
11:33 53.2 °F /  11.8 °C 49.1 °F /  9.5 °C 30.1in /  1019.6hPa West 0.9mph /  1.4km/h 6mph /  9.7km/h 86% 0in /  0.0mm 197 W/m2
11:38 53.4 °F /  11.9 °C 49.1 °F /  9.5 °C 30.1in /  1019.6hPa NW 4.9mph /  7.9km/h 8mph /  12.9km/h 85% 0in /  0.0mm 185 W/m2
11:43 53.6 °F /  12 °C 49.3 °F /  9.6 °C 30.1in /  1019.6hPa WNW 2.9mph /  4.7km/h 7mph /  11.3km/h 85% 0in /  0.0mm 193 W/m2
11:48 53.8 °F /  12.1 °C 49.5 °F /  9.7 °C 30.1in /  1019.6hPa NW 2.9mph /  4.7km/h 7mph /  11.3km/h 85% 0in /  0.0mm 104 W/m2
11:53 53.8 °F /  12.1 °C 49.5 °F /  9.7 °C 30.1in /  1019.6hPa West 2mph /  3.2km/h 5mph /  8km/h 85% 0in /  0.0mm 72 W/m2
11:58 53.6 °F /  12 °C 49.3 °F /  9.6 °C 30.1in /  1019.6hPa WSW 0.9mph /  1.4km/h 4mph /  6.4km/h 85% 0in /  0.0mm 84 W/m2
12:03 53.4 °F /  11.9 °C 49.3 °F /  9.6 °C 30.1in /  1019.6hPa NNW 2.9mph /  4.7km/h 4mph /  6.4km/h 86% 0in /  0.0mm 83 W/m2
12:08 53.4 °F /  11.9 °C 49.3 °F /  9.6 °C 30.1in /  1019.6hPa SSE 2.9mph /  4.7km/h 6mph /  9.7km/h 86% 0in /  0.0mm 134 W/m2
12:13 53.4 °F /  11.9 °C 49.3 °F /  9.6 °C 30.1in /  1019.6hPa WNW 4mph /  6.4km/h 6mph /  9.7km/h 86% 0in /  0.0mm 162 W/m2
12:18 53.4 °F /  11.9 °C 49.3 °F /  9.6 °C 30.1in /  1019.6hPa NNW 0.9mph /  1.4km/h 2mph /  3.2km/h 86% 0in /  0.0mm 151 W/m2
12:23 53.6 °F /  12 °C 49.5 °F /  9.7 °C 30.1in /  1019.6hPa WNW 8.1mph /  13km/h 8mph /  12.9km/h 86% 0in /  0.0mm 176 W/m2
12:28 53.8 °F /  12.1 °C 49.5 °F /  9.7 °C 30.1in /  1019.6hPa WSW 0.9mph /  1.4km/h 3mph /  4.8km/h 85% 0in /  0.0mm 183 W/m2
12:33 53.8 °F /  12.1 °C 49.1 °F /  9.5 °C 30.1in /  1019.3hPa NW 2mph /  3.2km/h 4mph /  6.4km/h 84% 0in /  0.0mm 213 W/m2
12:38 54 °F /  12.2 °C 49.3 °F /  9.6 °C 30.1in /  1019.6hPa West 6.9mph /  11.1km/h 9mph /  14.5km/h 84% 0in /  0.0mm 158 W/m2
12:43 54 °F /  12.2 °C 49.6 °F /  9.8 °C 30.1in /  1019.6hPa WNW 4.9mph /  7.9km/h 17mph /  27.4km/h 85% 0in /  0.0mm 167 W/m2
12:48 53.6 °F /  12 °C 49.5 °F /  9.7 °C 30.1in /  1019.6hPa West 6mph /  9.7km/h 7mph /  11.3km/h 86% 0in /  0.0mm 165 W/m2
12:53 53.2 °F /  11.8 °C 49.5 °F /  9.7 °C 30.1in /  1019.6hPa West 2.9mph /  4.7km/h 3mph /  4.8km/h 87% 0in /  0.0mm 160 W/m2
12:58 53.1 °F /  11.7 °C 49.6 °F /  9.8 °C 30.1in /  1019.6hPa West 2mph /  3.2km/h 4mph /  6.4km/h 88% 0in /  0.0mm 204 W/m2
13:03 53.1 °F /  11.7 °C 49.8 °F /  9.9 °C 30.1in /  1019.6hPa NW 2mph /  3.2km/h 4mph /  6.4km/h 89% 0in /  0.0mm 181 W/m2
13:08 53.1 °F /  11.7 °C 49.8 °F /  9.9 °C 30.1in /  1019.6hPa WNW 2mph /  3.2km/h 7mph /  11.3km/h 89% 0in /  0.0mm 181 W/m2
13:13 53.2 °F /  11.8 °C 50.4 °F /  10.2 °C 30.1in /  1019.3hPa Calm   3mph /  4.8km/h 90% 0in /  0.0mm 192 W/m2
13:18 53.2 °F /  11.8 °C 50 °F /  10 °C 30.1in /  1019.3hPa WNW 0.9mph /  1.4km/h 7mph /  11.3km/h 89% 0in /  0.0mm 253 W/m2
13:23 53.4 °F /  11.9 °C 50 °F /  10 °C 30.1in /  1019.3hPa WNW 0.9mph /  1.4km/h 7mph /  11.3km/h 88% 0in /  0.0mm 167 W/m2
13:28 53.8 °F /  12.1 °C 50.5 °F /  10.3 °C 30.1in /  1019.3hPa NNW 2.9mph /  4.7km/h 6mph /  9.7km/h 89% 0in /  0.0mm 156 W/m2
13:33 54 °F /  12.2 °C 50.5 °F /  10.3 °C 30.1in /  1019.3hPa NNW 0.9mph /  1.4km/h 4mph /  6.4km/h 88% 0in /  0.0mm 186 W/m2
13:38 54.1 °F /  12.3 °C 50.7 °F /  10.4 °C 30.1in /  1019.3hPa ESE 2.9mph /  4.7km/h 3mph /  4.8km/h 88% 0in /  0.0mm 149 W/m2
13:44 54.3 °F /  12.4 °C 50.5 °F /  10.3 °C 30.1in /  1019.0hPa NW 2mph /  3.2km/h 10mph /  16.1km/h 87% 0in /  0.0mm 230 W/m2
13:49 54.5 °F /  12.5 °C 50.7 °F /  10.4 °C 30.1in /  1019.3hPa NW 0.9mph /  1.4km/h 4mph /  6.4km/h 87% 0in /  0.0mm 223 W/m2
13:54 54.9 °F /  12.7 °C 50.7 °F /  10.4 °C 30.1in /  1019.3hPa WSW 4mph /  6.4km/h 9mph /  14.5km/h 86% 0in /  0.0mm 237 W/m2
13:59 55 °F /  12.8 °C 50.9 °F /  10.5 °C 30.1in /  1019.6hPa West 8.1mph /  13km/h 9mph /  14.5km/h 86% 0in /  0.0mm 163 W/m2
14:04 55 °F /  12.8 °C 50.5 °F /  10.3 °C 30.1in /  1019.6hPa NW 2mph /  3.2km/h 9mph /  14.5km/h 85% 0in /  0.0mm 132 W/m2
14:09 55 °F /  12.8 °C 50.5 °F /  10.3 °C 30.1in /  1019.6hPa West 4mph /  6.4km/h 11mph /  17.7km/h 85% 0in /  0.0mm 163 W/m2
14:14 55.2 °F /  12.9 °C 50.5 °F /  10.3 °C 30.1in /  1019.3hPa WNW 2mph /  3.2km/h 6mph /  9.7km/h 84% 0in /  0.0mm 149 W/m2
14:19 55.2 °F /  12.9 °C 50.5 °F /  10.3 °C 30.1in /  1019.6hPa WNW 8.9mph /  14.3km/h 9mph /  14.5km/h 84% 0in /  0.0mm 86 W/m2
14:24 55.2 °F /  12.9 °C 50.2 °F /  10.1 °C 30.1in /  1019.6hPa West 6.9mph /  11.1km/h 8mph /  12.9km/h 83% 0in /  0.0mm 69 W/m2
14:29 55.2 °F /  12.9 °C 50.2 °F /  10.1 °C 30.1in /  1019.6hPa West 2.9mph /  4.7km/h 6mph /  9.7km/h 83% 0in /  0.0mm 95 W/m2
14:34 55 °F /  12.8 °C 50 °F /  10 °C 30.1in /  1019.6hPa NNE 4mph /  6.4km/h 14mph /  22.5km/h 83% 0in /  0.0mm 95 W/m2
14:39 55 °F /  12.8 °C 50 °F /  10 °C 30.1in /  1019.6hPa WNW 4mph /  6.4km/h 10mph /  16.1km/h 83% 0in /  0.0mm 127 W/m2
14:44 55 °F /  12.8 °C 50 °F /  10 °C 30.1in /  1019.6hPa WNW 4mph /  6.4km/h 14mph /  22.5km/h 83% 0in /  0.0mm 134 W/m2
14:49 55 °F /  12.8 °C 50 °F /  10 °C 30.1in /  1020.0hPa West 8.1mph /  13km/h 8mph /  12.9km/h 83% 0in /  0.0mm 128 W/m2
14:54 55 °F /  12.8 °C 50 °F /  10 °C 30.1in /  1020.0hPa West 11mph /  17.7km/h 14mph /  22.5km/h 83% 0in /  0.0mm 97 W/m2
14:59 55 °F /  12.8 °C 50 °F /  10 °C 30.1in /  1019.6hPa WSW 2mph /  3.2km/h 4mph /  6.4km/h 83% 0in /  0.0mm 100 W/m2
15:04 55 °F /  12.8 °C 50 °F /  10 °C 30.1in /  1019.6hPa WSW 2.9mph /  4.7km/h 9mph /  14.5km/h 83% 0in /  0.0mm 118 W/m2
15:09 55 °F /  12.8 °C 50.4 °F /  10.2 °C 30.1in /  1019.6hPa WNW 2.9mph /  4.7km/h 3mph /  4.8km/h 84% 0in /  0.0mm 114 W/m2
15:14 55 °F /  12.8 °C 50.4 °F /  10.2 °C 30.1in /  1019.6hPa West 0.9mph /  1.4km/h 9mph /  14.5km/h 84% 0in /  0.0mm 70 W/m2
15:19 54.9 °F /  12.7 °C 50.4 °F /  10.2 °C 30.1in /  1019.6hPa West 0.9mph /  1.4km/h 6mph /  9.7km/h 85% 0in /  0.0mm 39 W/m2
15:24 54.3 °F /  12.4 °C 50.2 °F /  10.1 °C 30.1in /  1020.0hPa WNW 2.9mph /  4.7km/h 9mph /  14.5km/h 86% 0.01in /  0.2mm 28 W/m2
15:29 53.8 °F /  12.1 °C 50.4 °F /  10.2 °C 30.1in /  1020.0hPa Calm   4mph /  6.4km/h 88% 0.02in /  0.5mm 51 W/m2
15:34 53.4 °F /  11.9 °C 50.5 °F /  10.3 °C 30.1in /  1020.0hPa West 0.9mph /  1.4km/h 9mph /  14.5km/h 90% 0.02in /  0.5mm 42 W/m2
15:39 53.2 °F /  11.8 °C 50.4 °F /  10.2 °C 30.1in /  1020.0hPa WSW 2.9mph /  4.7km/h 8mph /  12.9km/h 90% 0.02in /  0.5mm 46 W/m2
15:44 53.1 °F /  11.7 °C 50.5 °F /  10.3 °C 30.1in /  1020.0hPa WNW 2.9mph /  4.7km/h 7mph /  11.3km/h 91% 0.02in /  0.5mm 54 W/m2
15:49 52.5 °F /  11.4 °C 50 °F /  10 °C 30.1in /  1020.3hPa NNW 8.1mph /  13km/h 11mph /  17.7km/h 91% 0.03in /  0.8mm 49 W/m2
15:54 52.3 °F /  11.3 °C 49.8 °F /  9.9 °C 30.1in /  1020.3hPa WSW 2.9mph /  4.7km/h 10mph /  16.1km/h 91% 0.03in /  0.8mm 69 W/m2
15:59 52.3 °F /  11.3 °C 50 °F /  10 °C 30.1in /  1020.3hPa WSW 4.9mph /  7.9km/h 11mph /  17.7km/h 92% 0.03in /  0.8mm 77 W/m2
16:04 52.3 °F /  11.3 °C 50 °F /  10 °C 30.1in /  1020.3hPa WSW 2mph /  3.2km/h 2mph /  3.2km/h 92% 0.03in /  0.8mm 67 W/m2
16:09 52.3 °F /  11.3 °C 50 °F /  10 °C 30.1in /  1020.0hPa Calm   1mph /  1.6km/h 92% 0.03in /  0.8mm 77 W/m2
16:14 52.3 °F /  11.3 °C 50.4 °F /  10.2 °C 30.1in /  1020.0hPa NW 0.9mph /  1.4km/h 2mph /  3.2km/h 93% 0.03in /  0.8mm 76 W/m2
16:19 52.5 °F /  11.4 °C 50.5 °F /  10.3 °C 30.1in /  1020.0hPa SSW 0.9mph /  1.4km/h 2mph /  3.2km/h 93% 0.03in /  0.8mm 56 W/m2
16:24 52.5 °F /  11.4 °C 50.5 °F /  10.3 °C 30.1in /  1020.0hPa WNW 2.9mph /  4.7km/h 4mph /  6.4km/h 93% 0.02in /  0.5mm 44 W/m2
16:29 52.5 °F /  11.4 °C 50.5 °F /  10.3 °C 30.1in /  1020.0hPa WNW 2mph /  3.2km/h 2mph /  3.2km/h 93% 0.02in /  0.5mm 46 W/m2
16:34 52.7 °F /  11.5 °C 50.4 °F /  10.2 °C 30.1in /  1020.0hPa Calm   3mph /  4.8km/h 92% 0.02in /  0.5mm 47 W/m2
16:39 52.7 °F /  11.5 °C 50.4 °F /  10.2 °C 30.1in /  1020.0hPa Calm   2mph /  3.2km/h 92% 0.01in /  0.2mm 30 W/m2
16:44 52.9 °F /  11.6 °C 50.5 °F /  10.3 °C 30.1in /  1020.0hPa Calm   1mph /  1.6km/h 92% 0.01in /  0.2mm 26 W/m2
16:49 52.9 °F /  11.6 °C 50.5 °F /  10.3 °C 30.1in /  1020.0hPa NE 2mph /  3.2km/h 2mph /  3.2km/h 92% 0in /  0.0mm 19 W/m2
16:54 52.9 °F /  11.6 °C 50.5 °F /  10.3 °C 30.1in /  1020.0hPa NE 0.9mph /  1.4km/h 2mph /  3.2km/h 92% 0in /  0.0mm 18 W/m2
16:59 52.9 °F /  11.6 °C 50.5 °F /  10.3 °C 30.1in /  1020.0hPa Calm   3mph /  4.8km/h 92% 0in /  0.0mm 14 W/m2
17:04 52.7 °F /  11.5 °C 50.4 °F /  10.2 °C 30.1in /  1020.0hPa Calm   2mph /  3.2km/h 92% 0in /  0.0mm 14 W/m2
17:09 52.7 °F /  11.5 °C 50.4 °F /  10.2 °C 30.1in /  1020.0hPa Calm   2mph /  3.2km/h 92% 0in /  0.0mm 9 W/m2
17:14 52.7 °F /  11.5 °C 50.4 °F /  10.2 °C 30.1in /  1019.6hPa Calm   2mph /  3.2km/h 92% 0in /  0.0mm 5 W/m2
17:19 52.7 °F /  11.5 °C 50.4 °F /  10.2 °C 30.1in /  1019.6hPa ESE 0.9mph /  1.4km/h 2mph /  3.2km/h 92% 0in /  0.0mm 0 W/m2
17:24 52.7 °F /  11.5 °C 50.7 °F /  10.4 °C 30.1in /  1019.6hPa Calm     93% 0in /  0.0mm 0 W/m2
17:29 52.5 °F /  11.4 °C 50.2 °F /  10.1 °C 30.1in /  1020.0hPa Calm   1mph /  1.6km/h 92% 0in /  0.0mm 0 W/m2
17:34 52.5 °F /  11.4 °C 50.5 °F /  10.3 °C 30.1in /  1020.0hPa Calm   2mph /  3.2km/h 93% 0in /  0.0mm 0 W/m2
17:39 52.5 °F /  11.4 °C 50.5 °F /  10.3 °C 30.1in /  1019.6hPa SSE 0.9mph /  1.4km/h 2mph /  3.2km/h 93% 0in /  0.0mm 0 W/m2
17:44 52.3 °F /  11.3 °C 50.4 °F /  10.2 °C 30.1in /  1020.0hPa Calm   2mph /  3.2km/h 93% 0.01in /  0.2mm 0 W/m2
17:49 52.3 °F /  11.3 °C 50.4 °F /  10.2 °C 30.1in /  1020.0hPa Calm   2mph /  3.2km/h 93% 0.01in /  0.2mm 0 W/m2
17:54 52.3 °F /  11.3 °C 50.4 °F /  10.2 °C 30.1in /  1020.0hPa NE 0.9mph /  1.4km/h 2mph /  3.2km/h 93% 0.01in /  0.2mm 0 W/m2
17:59 52.3 °F /  11.3 °C 50.4 °F /  10.2 °C 30.1in /  1020.0hPa Calm   2mph /  3.2km/h 93% 0.01in /  0.2mm 0 W/m2
18:04 52.3 °F /  11.3 °C 50.4 °F /  10.2 °C 30.1in /  1020.3hPa Calm   2mph /  3.2km/h 93% 0.01in /  0.2mm 0 W/m2
18:09 52.3 °F /  11.3 °C 50.4 °F /  10.2 °C 30.1in /  1020.3hPa NW 0.9mph /  1.4km/h 4mph /  6.4km/h 93% 0.01in /  0.2mm 0 W/m2
18:14 52.3 °F /  11.3 °C 50.4 °F /  10.2 °C 30.1in /  1020.3hPa Calm   3mph /  4.8km/h 93% 0.01in /  0.2mm 0 W/m2
18:19 52.5 °F /  11.4 °C 50.5 °F /  10.3 °C 30.1in /  1020.3hPa ESE 0.9mph /  1.4km/h 2mph /  3.2km/h 93% 0.02in /  0.5mm 0 W/m2
18:24 52.5 °F /  11.4 °C 50.5 °F /  10.3 °C 30.1in /  1020.3hPa Calm   1mph /  1.6km/h 93% 0.02in /  0.5mm 0 W/m2
18:29 52.5 °F /  11.4 °C 50.5 °F /  10.3 °C 30.1in /  1020.3hPa East 2mph /  3.2km/h 3mph /  4.8km/h 93% 0.02in /  0.5mm 0 W/m2
18:34 52.3 °F /  11.3 °C 50.4 °F /  10.2 °C 30.1in /  1020.3hPa Calm   1mph /  1.6km/h 93% 0.02in /  0.5mm 0 W/m2
18:39 52.5 °F /  11.4 °C 50.5 °F /  10.3 °C 30.1in /  1020.3hPa NE 0.9mph /  1.4km/h 2mph /  3.2km/h 93% 0.03in /  0.8mm 0 W/m2
18:44 52.3 °F /  11.3 °C 50.4 °F /  10.2 °C 30.1in /  1020.3hPa ESE 0.9mph /  1.4km/h 4mph /  6.4km/h 93% 0.02in /  0.5mm 0 W/m2
18:49 52.3 °F /  11.3 °C 50.4 °F /  10.2 °C 30.1in /  1020.3hPa North 0.9mph /  1.4km/h 2mph /  3.2km/h 93% 0.02in /  0.5mm 0 W/m2
18:54 52.3 °F /  11.3 °C 50.7 °F /  10.4 °C 30.1in /  1020.0hPa East 0.9mph /  1.4km/h 1mph /  1.6km/h 94% 0.03in /  0.8mm 0 W/m2
18:59 52.3 °F /  11.3 °C 50.7 °F /  10.4 °C 30.1in /  1020.0hPa Calm   3mph /  4.8km/h 94% 0.04in /  1.0mm 0 W/m2
19:04 52.3 °F /  11.3 °C 50.7 °F /  10.4 °C 30.1in /  1020.3hPa Calm   3mph /  4.8km/h 94% 0.04in /  1.0mm 0 W/m2
19:09 52.5 °F /  11.4 °C 50.9 °F /  10.5 °C 30.1in /  1020.3hPa West 0.9mph /  1.4km/h 4mph /  6.4km/h 94% 0.04in /  1.0mm 0 W/m2
19:14 52.5 °F /  11.4 °C 50.9 °F /  10.5 °C 30.1in /  1020.3hPa SW 2mph /  3.2km/h 6mph /  9.7km/h 94% 0.04in /  1.0mm 0 W/m2
19:19 52.5 °F /  11.4 °C 50.9 °F /  10.5 °C 30.1in /  1020.3hPa North 2mph /  3.2km/h 3mph /  4.8km/h 94% 0.03in /  0.8mm 0 W/m2
19:24 52.5 °F /  11.4 °C 50.9 °F /  10.5 °C 30.1in /  1020.0hPa North 0.9mph /  1.4km/h 4mph /  6.4km/h 94% 0.03in /  0.8mm 0 W/m2
19:29 52.5 °F /  11.4 °C 50.9 °F /  10.5 °C 30.1in /  1020.0hPa NNW 2.9mph /  4.7km/h 4mph /  6.4km/h 94% 0.02in /  0.5mm 0 W/m2
19:34 52.5 °F /  11.4 °C 50.5 °F /  10.3 °C 30.1in /  1020.0hPa North 0.9mph /  1.4km/h 3mph /  4.8km/h 93% 0.02in /  0.5mm 0 W/m2
19:39 52.5 °F /  11.4 °C 50.5 °F /  10.3 °C 30.1in /  1020.0hPa WNW 4.9mph /  7.9km/h 8mph /  12.9km/h 93% 0.02in /  0.5mm 0 W/m2
19:44 52.5 °F /  11.4 °C 50.5 °F /  10.3 °C 30.1in /  1020.0hPa SW 2mph /  3.2km/h 2mph /  3.2km/h 93% 0.02in /  0.5mm 0 W/m2
19:49 52.5 °F /  11.4 °C 50.5 °F /  10.3 °C 30.1in /  1020.0hPa NW 2.9mph /  4.7km/h 4mph /  6.4km/h 93% 0.02in /  0.5mm 0 W/m2
19:54 52.5 °F /  11.4 °C 50.9 °F /  10.5 °C 30.1in /  1020.0hPa WSW 6.9mph /  11.1km/h 7mph /  11.3km/h 94% 0.02in /  0.5mm 0 W/m2
19:59 52.5 °F /  11.4 °C 50.9 °F /  10.5 °C 30.1in /  1020.0hPa Calm   3mph /  4.8km/h 94% 0.01in /  0.2mm 0 W/m2
20:04 52.5 °F /  11.4 °C 50.9 °F /  10.5 °C 30.1in /  1020.3hPa Calm   3mph /  4.8km/h 94% 0.01in /  0.2mm 0 W/m2
20:09 52.5 °F /  11.4 °C 50.9 °F /  10.5 °C 30.1in /  1020.3hPa NNW 0.9mph /  1.4km/h 5mph /  8km/h 94% 0.01in /  0.2mm 0 W/m2
20:14 52.5 °F /  11.4 °C 50.9 °F /  10.5 °C 30.1in /  1020.3hPa Calm   2mph /  3.2km/h 94% 0.01in /  0.2mm 0 W/m2
20:19 52.5 °F /  11.4 °C 50.9 °F /  10.5 °C 30.1in /  1020.3hPa Calm   3mph /  4.8km/h 94% 0.01in /  0.2mm 0 W/m2
20:24 52.5 °F /  11.4 °C 50.9 °F /  10.5 °C 30.1in /  1020.0hPa West 0.9mph /  1.4km/h 4mph /  6.4km/h 94% 0.01in /  0.2mm 0 W/m2
20:30 52.5 °F /  11.4 °C 50.9 °F /  10.5 °C 30.1in /  1020.3hPa NE 2mph /  3.2km/h 5mph /  8km/h 94% 0.01in /  0.2mm 0 W/m2
20:35 52.5 °F /  11.4 °C 50.9 °F /  10.5 °C 30.1in /  1020.3hPa West 0.9mph /  1.4km/h 1mph /  1.6km/h 94% 0.01in /  0.2mm 0 W/m2
20:40 52.5 °F /  11.4 °C 50.9 °F /  10.5 °C 30.1in /  1020.3hPa SW 2mph /  3.2km/h 3mph /  4.8km/h 94% 0.01in /  0.2mm 0 W/m2
20:45 52.5 °F /  11.4 °C 50.9 °F /  10.5 °C 30.1in /  1020.3hPa NNW 2.9mph /  4.7km/h 3mph /  4.8km/h 94% 0in /  0.0mm 0 W/m2
20:50 52.5 °F /  11.4 °C 50.9 °F /  10.5 °C 30.1in /  1020.3hPa Calm   3mph /  4.8km/h 94% 0in /  0.0mm 0 W/m2
20:55 52.7 °F /  11.5 °C 51.1 °F /  10.6 °C 30.1in /  1020.7hPa East 0.9mph /  1.4km/h 3mph /  4.8km/h 94% 0in /  0.0mm 0 W/m2
21:00 52.7 °F /  11.5 °C 51.1 °F /  10.6 °C 30.1in /  1020.3hPa ENE 2mph /  3.2km/h 2mph /  3.2km/h 94% 0in /  0.0mm 0 W/m2
21:06 52.9 °F /  11.6 °C 51.3 °F /  10.7 °C 30.1in /  1020.3hPa NW 0.9mph /  1.4km/h 7mph /  11.3km/h 94% 0in /  0.0mm 0 W/m2
21:11 52.9 °F /  11.6 °C 51.3 °F /  10.7 °C 30.1in /  1020.7hPa North 2mph /  3.2km/h 5mph /  8km/h 94% 0in /  0.0mm 0 W/m2
21:16 52.9 °F /  11.6 °C 51.3 °F /  10.7 °C 30.1in /  1020.7hPa WNW 2mph /  3.2km/h 3mph /  4.8km/h 94% 0in /  0.0mm 0 W/m2
21:21 52.9 °F /  11.6 °C 51.3 °F /  10.7 °C 30.1in /  1020.7hPa NNW 8.1mph /  13km/h 8mph /  12.9km/h 94% 0in /  0.0mm 0 W/m2
21:26 53.1 °F /  11.7 °C 51.4 °F /  10.8 °C 30.1in /  1020.3hPa Calm   9mph /  14.5km/h 94% 0in /  0.0mm 0 W/m2
21:31 53.1 °F /  11.7 °C 51.4 °F /  10.8 °C 30.1in /  1020.3hPa North 0.9mph /  1.4km/h 3mph /  4.8km/h 94% 0in /  0.0mm 0 W/m2
21:36 53.1 °F /  11.7 °C 51.4 °F /  10.8 °C 30.1in /  1020.3hPa NNE 0.9mph /  1.4km/h 9mph /  14.5km/h 94% 0in /  0.0mm 0 W/m2
21:41 53.1 °F /  11.7 °C 51.4 °F /  10.8 °C 30.1in /  1020.3hPa Calm   2mph /  3.2km/h 94% 0in /  0.0mm 0 W/m2
21:46 53.1 °F /  11.7 °C 51.4 °F /  10.8 °C 30.1in /  1020.7hPa North 2.9mph /  4.7km/h 5mph /  8km/h 94% 0in /  0.0mm 0 W/m2
21:51 53.2 °F /  11.8 °C 51.6 °F /  10.9 °C 30.1in /  1020.7hPa NW 6.9mph /  11.1km/h 7mph /  11.3km/h 94% 0in /  0.0mm 0 W/m2
21:56 53.2 °F /  11.8 °C 51.6 °F /  10.9 °C 30.1in /  1020.7hPa Calm   6mph /  9.7km/h 94% 0in /  0.0mm 0 W/m2
22:01 53.4 °F /  11.9 °C 51.8 °F /  11 °C 30.1in /  1020.7hPa NNE 2.9mph /  4.7km/h 4mph /  6.4km/h 94% 0in /  0.0mm 0 W/m2
22:06 53.4 °F /  11.9 °C 51.8 °F /  11 °C 30.1in /  1020.7hPa West 2.9mph /  4.7km/h 6mph /  9.7km/h 94% 0in /  0.0mm 0 W/m2
22:11 53.4 °F /  11.9 °C 51.8 °F /  11 °C 30.1in /  1020.7hPa NNE 0.9mph /  1.4km/h 1mph /  1.6km/h 94% 0in /  0.0mm 0 W/m2
22:16 53.6 °F /  12 °C 52 °F /  11.1 °C 30.1in /  1020.7hPa WSW 2mph /  3.2km/h 5mph /  8km/h 94% 0in /  0.0mm 0 W/m2
22:21 53.6 °F /  12 °C 52 °F /  11.1 °C 30.1in /  1020.3hPa NW 4mph /  6.4km/h 11mph /  17.7km/h 94% 0in /  0.0mm 0 W/m2
22:26 53.8 °F /  12.1 °C 52.2 °F /  11.2 °C 30.1in /  1020.7hPa ESE 6mph /  9.7km/h 6mph /  9.7km/h 94% 0in /  0.0mm 0 W/m2
22:31 53.8 °F /  12.1 °C 52.2 °F /  11.2 °C 30.1in /  1020.3hPa South 2.9mph /  4.7km/h 9mph /  14.5km/h 94% 0in /  0.0mm 0 W/m2
22:36 54 °F /  12.2 °C 52.3 °F /  11.3 °C 30.1in /  1020.3hPa WNW 4mph /  6.4km/h 9mph /  14.5km/h 94% 0in /  0.0mm 0 W/m2
22:41 54 °F /  12.2 °C 52.3 °F /  11.3 °C 30.1in /  1020.3hPa NW 4.9mph /  7.9km/h 10mph /  16.1km/h 94% 0in /  0.0mm 0 W/m2
22:46 54 °F /  12.2 °C 52.3 °F /  11.3 °C 30.1in /  1020.0hPa Calm   5mph /  8km/h 94% 0in /  0.0mm 0 W/m2
22:51 54 °F /  12.2 °C 52.3 °F /  11.3 °C 30.1in /  1020.3hPa NE 2mph /  3.2km/h 10mph /  16.1km/h 94% 0in /  0.0mm 0 W/m2
22:56 54.1 °F /  12.3 °C 52.5 °F /  11.4 °C 30.1in /  1020.3hPa WNW 2mph /  3.2km/h 6mph /  9.7km/h 94% 0in /  0.0mm 0 W/m2
23:01 54.1 °F /  12.3 °C 52.5 °F /  11.4 °C 30.1in /  1020.3hPa WSW 0.9mph /  1.4km/h 7mph /  11.3km/h 94% 0in /  0.0mm 0 W/m2
23:06 54.1 °F /  12.3 °C 52.5 °F /  11.4 °C 30.1in /  1020.3hPa WSW 0.9mph /  1.4km/h 8mph /  12.9km/h 94% 0in /  0.0mm 0 W/m2
23:11 54.3 °F /  12.4 °C 52.7 °F /  11.5 °C 30.1in /  1020.3hPa NNW 4mph /  6.4km/h 5mph /  8km/h 94% 0in /  0.0mm 0 W/m2
23:16 54.3 °F /  12.4 °C 52.3 °F /  11.3 °C 30.1in /  1020.3hPa WNW 4mph /  6.4km/h 9mph /  14.5km/h 93% 0in /  0.0mm 0 W/m2
23:21 54.5 °F /  12.5 °C 52.5 °F /  11.4 °C 30.1in /  1020.3hPa Calm   2mph /  3.2km/h 93% 0in /  0.0mm 0 W/m2
23:26 54.5 °F /  12.5 °C 52.5 °F /  11.4 °C 30.1in /  1020.3hPa West 0.9mph /  1.4km/h 7mph /  11.3km/h 93% 0in /  0.0mm 0 W/m2
23:31 54.5 °F /  12.5 °C 52.5 °F /  11.4 °C 30.1in /  1020.3hPa WSW 2.9mph /  4.7km/h 4mph /  6.4km/h 93% 0in /  0.0mm 0 W/m2
23:36 54.7 °F /  12.6 °C 53.1 °F /  11.7 °C 30.1in /  1020.3hPa NNW 0.9mph /  1.4km/h 5mph /  8km/h 94% 0in /  0.0mm 0 W/m2
23:41 54.7 °F /  12.6 °C 52.7 °F /  11.5 °C 30.1in /  1020.0hPa West 0.9mph /  1.4km/h 5mph /  8km/h 93% 0in /  0.0mm 0 W/m2
23:46 54.9 °F /  12.7 °C 52.9 °F /  11.6 °C 30.1in /  1020.3hPa East 0.9mph /  1.4km/h 8mph /  12.9km/h 93% 0in /  0.0mm 0 W/m2
23:51 54.9 °F /  12.7 °C 52.9 °F /  11.6 °C 30.1in /  1020.3hPa NE 2mph /  3.2km/h 4mph /  6.4km/h 93% 0in /  0.0mm 0 W/m2
23:56 54.9 °F /  12.7 °C 52.9 °F /  11.6 °C 30.1in /  1020.3hPa WNW 0.9mph /  1.4km/h 4mph /  6.4km/h 93% 0in /  0.0mm 0 W/m2
Juneau County Weather
Compliments of Weather Underground - 4 mb